Time;durP1;ratioP1;P1;durP2;ratioP2;P2;SDS_P1;SDS_P2;PMS_P1;PMS_P2;Temp;Humidity;BMP_temperature;BMP_pressure;BME280_temperature;BME280_humidity;BME280_pressure;Samples;Min_cycle;Max_cycle;Signal;HPM_P1;HPM_P2
2022/12/25 00:02:00;;;;;;;11.43;8.32;;;11.60;99.90;;;10.78;100.00;100938.06;4169588;28;20037;-71
2022/12/25 00:04:01;;;;;;;13.13;9.35;;;11.70;99.90;;;10.79;100.00;100945.78;4168136;28;20057;-71
2022/12/25 00:06:02;;;;;;;13.98;9.55;;;11.70;99.90;;;10.76;100.00;100932.91;4169491;28;20401;-71
2022/12/25 00:08:04;;;;;;;11.63;9.50;;;11.70;99.90;;;10.76;100.00;100930.28;4151705;28;20129;-71
2022/12/25 00:10:06;;;;;;;15.63;9.90;;;11.70;99.90;;;10.78;100.00;100925.66;4169436;28;20025;-71
2022/12/25 00:12:07;;;;;;;12.98;9.32;;;11.70;99.90;;;10.78;100.00;100930.94;4167746;28;20060;-71
2022/12/25 00:14:08;;;;;;;11.73;9.38;;;11.70;99.90;;;10.76;100.00;100911.78;4168965;28;20025;-71
2022/12/25 00:16:20;;;;;;;17.13;10.43;;;11.60;99.90;;;10.78;100.00;100912.47;4167541;28;20042;-71
2022/12/25 00:18:22;;;;;;;18.38;11.60;;;11.60;99.90;;;10.77;100.00;100900.28;4169299;28;20501;-71
2022/12/25 00:20:23;;;;;;;14.63;11.23;;;11.70;99.90;;;10.75;100.00;100889.03;4168013;28;20022;-71
2022/12/25 00:22:24;;;;;;;19.85;13.20;;;11.70;99.90;;;10.73;100.00;100877.81;4169019;28;20444;-71
2022/12/25 00:24:24;;;;;;;14.93;12.48;;;11.70;99.90;;;10.79;100.00;100877.19;4168238;28;20449;-71
2022/12/25 00:26:27;;;;;;;17.00;12.85;;;11.70;99.90;;;10.77;100.00;100868.59;4169140;28;20033;-71
2022/12/25 00:28:27;;;;;;;20.17;11.82;;;11.70;99.90;;;10.75;100.00;100867.09;4169065;28;20083;-71
2022/12/25 00:30:28;;;;;;;14.82;11.15;;;11.70;99.90;;;10.73;100.00;100864.63;4167624;28;20026;-71
2022/12/25 00:32:29;;;;;;;14.15;11.00;;;11.70;99.90;;;10.69;100.00;100858.00;4154822;28;20026;-71
2022/12/25 00:34:30;;;;;;;16.88;12.05;;;11.60;99.90;;;10.75;100.00;100867.91;4168754;28;20543;-71
2022/12/25 00:36:31;;;;;;;15.88;11.05;;;11.60;99.90;;;10.74;100.00;100862.81;4167815;28;20112;-71
2022/12/25 00:38:34;;;;;;;17.10;11.10;;;11.60;99.90;;;10.73;100.00;100864.63;4168948;28;20055;-71
2022/12/25 00:40:43;;;;;;;15.43;11.40;;;11.60;99.90;;;10.72;100.00;100855.03;4167995;28;20036;-71
2022/12/25 00:42:43;;;;;;;14.43;10.20;;;11.60;99.90;;;10.74;100.00;100854.88;4169324;28;20144;-71
2022/12/25 00:44:49;;;;;;;24.88;14.65;;;11.60;99.90;;;10.73;100.00;100853.22;4168754;28;20381;-71
2022/12/25 00:46:50;;;;;;;24.50;15.65;;;11.60;99.90;;;10.70;100.00;100853.53;4167575;28;20087;-71
2022/12/25 00:48:51;;;;;;;18.80;14.20;;;11.60;99.90;;;10.71;100.00;100858.66;4167712;28;20025;-71
2022/12/25 00:50:58;;;;;;;20.02;14.93;;;11.60;99.90;;;10.70;100.00;100862.28;4168767;28;20120;-71
2022/12/25 00:52:59;;;;;;;20.50;14.95;;;11.60;99.90;;;10.71;100.00;100855.19;4167654;28;20021;-71
2022/12/25 00:55:00;;;;;;;22.63;14.52;;;11.50;99.90;;;10.70;100.00;100853.53;4168974;28;20032;-70
2022/12/25 00:57:01;;;;;;;19.80;14.80;;;11.60;99.90;;;10.68;100.00;100844.94;4168826;28;20106;-70
2022/12/25 00:59:02;;;;;;;21.88;15.00;;;11.60;99.90;;;10.67;100.00;100841.47;4167527;28;20045;-71
2022/12/25 01:01:03;;;;;;;25.25;15.57;;;11.60;99.90;;;10.67;100.00;100846.75;4167210;28;20428;-71
2022/12/25 01:03:04;;;;;;;19.80;14.77;;;11.60;99.90;;;10.65;100.00;100851.38;4167308;28;20037;-71
2022/12/25 01:05:06;;;;;;;19.55;15.07;;;11.60;99.90;;;10.62;100.00;100838.50;4167567;28;20025;-71
2022/12/25 01:07:07;;;;;;;26.20;15.95;;;11.50;99.90;;;10.67;100.00;100845.94;4151098;28;20394;-71
2022/12/25 01:11:28;;;;;;;22.00;13.63;;;11.50;99.90;;;10.62;100.00;100838.50;4155753;28;20037;-71
2022/12/25 01:13:30;;;;;;;18.70;13.45;;;11.50;99.90;;;10.62;100.00;100835.84;4167540;28;20085;-71
2022/12/25 01:15:31;;;;;;;23.48;15.13;;;11.50;99.90;;;10.60;100.00;100837.00;4166878;28;20060;-71
2022/12/25 01:17:32;;;;;;;20.23;14.05;;;11.50;99.90;;;10.61;100.00;100847.38;4168698;28;20022;-71
2022/12/25 01:19:33;;;;;;;22.80;12.48;;;11.50;99.90;;;10.60;100.00;100842.25;4168624;28;20029;-71
2022/12/25 01:21:34;;;;;;;17.90;12.73;;;11.50;99.90;;;10.60;100.00;100837.00;4168658;28;20025;-71
2022/12/25 01:23:35;;;;;;;18.30;11.43;;;11.50;99.90;;;10.58;100.00;100842.41;4168466;28;20081;-70
2022/12/25 01:25:36;;;;;;;15.30;11.55;;;11.50;99.90;;;10.56;100.00;100844.38;4168499;28;20105;-70
2022/12/25 01:27:40;;;;;;;17.98;10.80;;;11.50;99.90;;;10.54;100.00;100848.97;4167181;28;20041;-71
2022/12/25 01:29:42;;;;;;;13.75;9.68;;;11.40;99.90;;;10.55;100.00;100855.91;4167200;28;20060;-71
2022/12/25 01:31:43;;;;;;;15.07;9.85;;;11.50;99.90;;;10.54;100.00;100852.44;4167404;28;20483;-71
2022/12/25 01:33:45;;;;;;;12.75;8.55;;;11.40;99.90;;;10.54;100.00;100846.34;4167182;28;20029;-71
2022/12/25 01:35:46;;;;;;;13.07;8.85;;;11.40;99.90;;;10.57;100.00;100850.47;4167369;28;20493;-71
2022/12/25 01:37:47;;;;;;;13.75;8.13;;;11.40;99.90;;;10.50;100.00;100835.28;4167632;28;20072;-71
2022/12/25 01:39:48;;;;;;;12.18;8.68;;;11.40;99.90;;;10.54;100.00;100843.72;4167206;28;20509;-71
2022/12/25 01:41:49;;;;;;;9.75;7.68;;;11.40;99.90;;;10.50;100.00;100848.47;4168449;28;20025;-71
2022/12/25 01:44:00;;;;;;;9.00;6.72;;;11.40;99.90;;;10.56;100.00;100857.56;4167335;28;20128;-71
2022/12/25 01:46:02;;;;;;;11.05;7.22;;;11.40;99.90;;;10.51;100.00;100857.22;4169860;28;20021;-71
2022/12/25 01:48:13;;;;;;;8.27;7.22;;;11.40;99.90;;;10.48;100.00;100857.50;4171764;28;20029;-71
2022/12/25 01:50:14;;;;;;;8.45;6.30;;;11.30;99.90;;;10.47;100.00;100850.56;4170156;28;20025;-71
2022/12/25 01:52:22;;;;;;;11.45;7.72;;;11.40;99.90;;;10.47;100.00;100845.28;4170496;28;20104;-71
2022/12/25 01:54:33;;;;;;;13.15;7.93;;;11.40;99.90;;;10.45;100.00;100847.25;4160307;28;20022;-71
2022/12/25 01:56:37;;;;;;;11.40;8.10;;;11.30;99.90;;;10.43;100.00;100855.31;4169264;28;20052;-71
2022/12/25 01:58:38;;;;;;;13.20;8.98;;;11.30;99.90;;;10.43;100.00;100855.31;4170415;28;20090;-71
2022/12/25 02:00:38;;;;;;;9.60;7.50;;;11.30;99.90;;;10.41;100.00;100854.66;4169961;28;20026;-71
2022/12/25 02:02:41;;;;;;;11.25;7.55;;;11.30;99.90;;;10.43;100.00;100859.75;4170088;28;20025;-71
2022/12/25 02:05:08;;;;;;;11.02;7.97;;;11.30;99.90;;;10.42;100.00;100858.13;4170061;28;20035;-70
2022/12/25 02:07:13;;;;;;;10.93;8.55;;;11.30;99.90;;;10.43;100.00;100870.31;4169458;28;20187;-71
2022/12/25 02:09:14;;;;;;;9.52;7.93;;;11.30;99.90;;;10.43;100.00;100886.13;4170024;28;20039;-71
2022/12/25 02:11:55;;;;;;;11.20;8.43;;;11.30;99.90;;;10.45;100.00;100903.44;4171072;28;20405;-71
2022/12/25 02:13:36;;;;;;;9.93;8.15;;;11.30;99.90;;;10.44;100.00;100914.16;4170949;28;20036;-71
2022/12/25 02:16:00;;;;;;;13.93;8.00;;;11.30;99.90;;;10.47;100.00;100913.88;4169375;28;20037;-71
2022/12/25 02:18:13;;;;;;;10.80;8.03;;;11.30;99.90;;;10.45;100.00;100915.84;4169791;28;20551;-71
2022/12/25 02:20:45;;;;;;;12.98;9.45;;;11.30;99.90;;;10.46;100.00;100912.19;4171041;28;20671;-71
2022/12/25 02:23:19;;;;;;;14.50;10.60;;;11.30;99.90;;;10.47;100.00;100903.31;4171096;28;20034;-71
2022/12/25 02:26:07;;;;;;;12.65;9.32;;;11.30;99.90;;;10.45;100.00;100882.34;4170851;28;20052;-71
2022/12/25 02:28:31;;;;;;;15.30;10.82;;;11.30;99.90;;;10.48;100.00;100862.78;4170949;28;20405;-71
2022/12/25 02:30:41;;;;;;;14.10;10.85;;;11.40;99.90;;;10.46;100.00;100875.28;4169608;28;20096;-71
2022/12/25 02:35:31;;;;;;;15.63;11.00;;;11.30;99.90;;;10.47;100.00;100850.56;4170900;28;20056;-71
2022/12/25 02:37:49;;;;;;;14.98;11.07;;;11.30;99.90;;;10.47;100.00;100840.03;4169847;28;20026;-71
2022/12/25 02:40:18;;;;;;;14.85;11.35;;;11.30;99.90;;;10.44;100.00;100829.78;4154001;28;20022;-71
2022/12/25 03:07:19;;;;;;;14.07;10.65;;;11.30;99.90;;;10.40;100.00;100765.13;4169488;28;20041;-71
2022/12/25 03:11:58;;;;;;;15.15;11.13;;;11.30;99.90;;;10.42;100.00;100750.00;4169367;28;20067;-71
2022/12/25 03:18:45;;;;;;;15.57;11.68;;;11.30;99.90;;;10.37;100.00;100734.63;4169238;28;20099;-71
2022/12/25 03:27:53;;;;;;;16.38;10.60;;;11.30;99.90;;;10.42;100.00;100726.25;4169489;28;20540;-71
2022/12/25 03:32:42;;;;;;;13.25;10.15;;;11.30;99.90;;;10.47;100.00;100745.91;4169808;28;20040;-71
2022/12/25 03:35:22;;;;;;;16.02;10.27;;;11.30;99.90;;;10.48;100.00;100741.47;4169969;28;20445;-70
2022/12/25 04:37:59;;;;;;;9.52;5.55;;;11.40;99.90;;;10.44;100.00;100661.00;4167946;28;20412;-71
2022/12/25 04:40:00;;;;;;;10.35;6.18;;;11.30;99.90;;;10.43;100.00;100654.91;4167733;28;20029;-71
2022/12/25 04:42:00;;;;;;;12.15;6.13;;;11.40;99.90;;;10.44;100.00;100640.75;4167596;28;20103;-71
2022/12/25 04:44:01;;;;;;;6.75;5.07;;;11.30;99.90;;;10.46;100.00;100627.38;4168972;28;20064;-71
2022/12/25 04:46:03;;;;;;;9.35;6.22;;;11.40;99.90;;;10.45;100.00;100610.72;4167517;28;20112;-71
2022/12/25 04:48:04;;;;;;;8.05;5.63;;;11.30;99.90;;;10.48;100.00;100613.03;4167626;28;20030;-71
2022/12/25 04:50:07;;;;;;;8.20;5.28;;;11.40;99.90;;;10.51;100.00;100610.09;4168712;28;20029;-71
2022/12/25 04:52:07;;;;;;;9.02;5.25;;;11.30;99.90;;;10.49;100.00;100611.25;4168894;28;20024;-71
2022/12/25 04:54:08;;;;;;;9.57;5.85;;;11.40;99.90;;;10.48;100.00;100609.59;4176008;28;20057;-71
2022/12/25 04:56:10;;;;;;;8.00;5.47;;;11.40;99.90;;;10.50;100.00;100616.38;4162309;28;20026;-71
2022/12/25 04:58:11;;;;;;;10.35;5.85;;;11.40;99.90;;;10.48;100.00;100610.41;4168609;28;20048;-71
2022/12/25 05:00:12;;;;;;;11.55;5.57;;;11.40;99.90;;;10.49;100.00;100616.50;4168658;28;20400;-71
2022/12/25 05:02:13;;;;;;;7.82;4.97;;;11.40;99.90;;;10.52;100.00;100613.56;4167543;28;20037;-70
2022/12/25 05:04:14;;;;;;;10.13;5.70;;;11.40;99.90;;;10.52;100.00;100621.47;4168800;28;20386;-71
2022/12/25 05:06:14;;;;;;;8.20;4.75;;;11.40;99.90;;;10.51;100.00;100619.84;4168534;28;20096;-71
2022/12/25 05:08:15;;;;;;;9.60;5.45;;;11.40;99.90;;;10.54;100.00;100627.44;4169255;28;20492;-71
2022/12/25 05:10:16;;;;;;;8.40;5.55;;;11.40;99.90;;;10.53;100.00;100625.78;4168239;28;20028;-71
2022/12/25 05:12:17;;;;;;;10.77;6.05;;;11.40;99.90;;;10.53;100.00;100633.69;4168617;28;20104;-71
2022/12/25 05:14:18;;;;;;;11.15;5.65;;;11.40;99.90;;;10.55;100.00;100637.81;4167118;28;20025;-71
2022/12/25 05:16:20;;;;;;;8.98;5.65;;;11.40;99.90;;;10.52;100.00;100629.38;4168462;28;20132;-71
2022/12/25 05:18:21;;;;;;;9.15;6.07;;;11.40;99.90;;;10.55;100.00;100639.63;4167490;28;20026;-71
2022/12/25 05:20:21;;;;;;;9.35;5.43;;;11.40;99.90;;;10.56;100.00;100633.38;4170827;28;20032;-71
2022/12/25 05:22:22;;;;;;;7.70;5.05;;;11.40;99.90;;;10.52;100.00;100632.84;4170841;28;20053;-71
2022/12/25 05:24:26;;;;;;;8.48;4.88;;;11.40;99.90;;;10.54;100.00;100624.78;4170708;28;20053;-71
2022/12/25 05:26:27;;;;;;;6.80;4.57;;;11.40;99.90;;;10.54;100.00;100619.53;4171942;28;20026;-71
2022/12/25 05:28:28;;;;;;;8.25;4.40;;;11.40;99.90;;;10.54;100.00;100614.25;4171815;28;20059;-71
2022/12/25 05:30:29;;;;;;;6.82;4.20;;;11.50;99.90;;;10.56;100.00;100612.25;4170229;28;20036;-71
2022/12/25 05:32:30;;;;;;;8.60;4.50;;;11.40;99.90;;;10.51;100.00;100611.94;4171863;28;20056;-71
2022/12/25 05:34:31;;;;;;;7.90;4.28;;;11.40;99.90;;;10.54;100.00;100609.78;4170564;28;20174;-71
2022/12/25 05:36:32;;;;;;;7.63;3.83;;;11.50;99.90;;;10.56;100.00;100612.25;4170408;28;20072;-71
2022/12/25 05:38:34;;;;;;;5.68;3.70;;;11.40;99.90;;;10.57;100.00;100606.00;4171748;28;20033;-71
2022/12/25 05:40:39;;;;;;;10.20;5.07;;;11.50;99.90;;;10.57;100.00;100586.72;4170473;28;20032;-71
2022/12/25 05:42:40;;;;;;;9.82;5.13;;;11.50;99.90;;;10.57;100.00;100570.91;4171711;28;20029;-71
2022/12/25 05:44:41;;;;;;;8.98;4.43;;;11.40;99.90;;;10.53;100.00;100550.13;4170198;28;20076;-71
2022/12/25 05:46:42;;;;;;;7.65;3.65;;;11.40;99.90;;;10.54;100.00;100550.94;4170150;28;20053;-72
2022/12/25 05:48:43;;;;;;;9.90;4.47;;;11.40;99.90;;;10.55;100.00;100553.41;4171722;28;20493;-72
2022/12/25 05:50:44;;;;;;;6.18;4.57;;;11.40;99.90;;;10.54;100.00;100553.59;4171658;28;20029;-71
2022/12/25 05:52:45;;;;;;;6.80;4.13;;;11.40;99.90;;;10.54;100.00;100561.50;4170107;28;20068;-71
2022/12/25 05:54:46;;;;;;;8.18;3.60;;;11.40;99.90;;;10.52;100.00;100564.28;4157367;28;20022;-71
2022/12/25 05:56:46;;;;;;;6.97;3.97;;;11.40;99.90;;;10.54;100.00;100572.84;4171303;28;20025;-71
2022/12/25 05:58:48;;;;;;;6.55;3.47;;;11.40;99.90;;;10.55;100.00;100571.03;4170326;28;20024;-71
2022/12/25 06:00:48;;;;;;;7.53;4.05;;;11.40;99.90;;;10.53;100.00;100552.75;4169937;28;20079;-71
2022/12/25 06:02:49;;;;;;;5.75;2.80;;;11.40;99.90;;;10.55;100.00;100557.84;4171368;28;20485;-71
2022/12/25 06:04:50;;;;;;;5.45;3.67;;;11.40;99.90;;;10.54;100.00;100541.19;4171184;28;20064;-71
2022/12/25 06:06:52;;;;;;;6.07;3.38;;;11.40;99.90;;;10.57;100.00;100544.53;4170167;28;20032;-71
2022/12/25 06:08:54;;;;;;;9.20;3.92;;;11.40;99.90;;;10.53;100.00;100558.03;4171260;28;20037;-71
2022/12/25 06:10:54;;;;;;;4.88;3.35;;;11.50;99.90;;;10.54;100.00;100561.50;4170107;28;20036;-71
2022/12/25 06:12:55;;;;;;;7.63;3.60;;;11.40;99.90;;;10.53;100.00;100559.84;4171041;28;20493;-71
2022/12/25 06:14:56;;;;;;;7.10;3.90;;;11.50;99.90;;;10.53;100.00;100565.94;4169775;28;20033;-71
2022/12/25 06:16:57;;;;;;;5.45;3.60;;;11.40;99.90;;;10.53;100.00;100567.75;4170977;28;20495;-71
2022/12/25 06:18:58;;;;;;;6.95;3.60;;;11.40;99.90;;;10.53;100.00;100560.66;4170112;28;20088;-71
2022/12/25 06:20:59;;;;;;;6.35;3.35;;;11.40;99.90;;;10.54;100.00;100543.03;4170969;28;20029;-71
2022/12/25 06:23:00;;;;;;;5.85;3.35;;;11.40;99.90;;;10.53;100.00;100544.00;4170014;28;20030;-71
2022/12/25 06:25:01;;;;;;;6.82;3.08;;;11.40;99.90;;;10.51;100.00;100546.78;4169845;28;20053;-71
2022/12/25 06:27:02;;;;;;;3.60;2.55;;;11.40;99.90;;;10.48;100.00;100546.31;4169784;28;20068;-71
2022/12/25 06:29:03;;;;;;;4.80;2.60;;;11.40;99.90;;;10.48;100.00;100536.56;4170601;28;20389;-71
2022/12/25 06:31:17;;;;;;;5.15;2.70;;;11.40;99.90;;;10.49;100.00;100532.13;4170417;28;20096;-71
2022/12/25 06:33:18;;;;;;;4.90;2.58;;;11.40;99.90;;;10.50;100.00;100528.50;4169793;28;20064;-71
2022/12/25 06:35:18;;;;;;;7.57;3.22;;;11.40;99.90;;;10.50;100.00;100523.22;4170772;28;20030;-71
2022/12/25 06:37:19;;;;;;;4.75;2.78;;;11.40;99.90;;;10.46;100.00;100506.91;4170612;28;20060;-71
2022/12/25 06:39:20;;;;;;;5.63;2.90;;;11.40;99.90;;;10.48;100.00;100504.91;4170000;28;20025;-71
2022/12/25 06:41:25;;;;;;;5.80;3.45;;;11.40;99.90;;;10.46;100.00;100498.16;4169724;28;20107;-71
2022/12/25 06:43:25;;;;;;;;;;;11.40;99.90;;;10.42;100.00;100496.84;4169832;28;20041;-71
2022/12/25 06:45:26;;;;;;;5.50;3.55;;;11.30;99.90;;;10.43;100.00;100498.47;4169142;28;19932;-71
2022/12/25 06:47:27;;;;;;;6.65;3.53;;;11.40;99.90;;;10.43;100.00;100498.47;4170781;28;20029;-71
2022/12/25 06:49:28;;;;;;;7.03;3.72;;;11.40;99.90;;;10.43;100.00;100485.28;4170697;28;20021;-71
2022/12/25 06:51:32;;;;;;;8.98;3.88;;;11.30;99.90;;;10.45;100.00;100485.97;4169396;28;20029;-71
2022/12/25 06:53:33;;;;;;;4.78;3.42;;;11.40;99.90;;;10.44;100.00;100477.25;4166251;28;20028;-71
2022/12/25 06:55:34;;;;;;;5.43;3.45;;;11.30;99.90;;;10.45;100.00;100475.44;4158995;28;20044;-71
2022/12/25 06:57:34;;;;;;;10.02;4.45;;;11.30;99.90;;;10.44;100.00;100490.44;4163472;28;20018;-71
2022/12/25 06:59:35;;;;;;;6.10;4.30;;;11.30;99.90;;;10.44;100.00;100497.50;4170318;28;20079;-71
2022/12/25 07:01:59;;;;;;;5.53;3.88;;;11.30;99.90;;;10.45;100.00;100507.06;4152642;28;20032;-71
2022/12/25 07:04:20;;;;;;;7.25;4.10;;;11.30;99.90;;;10.42;100.00;100502.13;4159941;28;20069;-71
2022/12/25 07:06:21;;;;;;;7.00;4.53;;;11.40;99.90;;;10.43;100.00;100499.31;4169294;28;20045;-71
2022/12/25 07:08:22;;;;;;;8.15;4.75;;;11.30;99.90;;;10.45;100.00;100496.53;4169313;28;20029;-71
2022/12/25 07:10:23;;;;;;;5.05;3.80;;;11.30;99.90;;;10.46;100.00;100493.72;4170521;28;20036;-71
2022/12/25 07:12:24;;;;;;;9.98;6.03;;;11.30;99.90;;;10.43;100.00;100503.75;4169049;28;20485;-71
2022/12/25 07:14:25;;;;;;;9.43;6.22;;;11.40;99.90;;;10.43;100.00;100511.66;4168602;28;20029;-71
2022/12/25 07:16:26;;;;;;;10.02;6.70;;;11.30;99.90;;;10.44;100.00;100523.88;4168903;28;20045;-71
2022/12/25 07:18:27;;;;;;;11.68;7.10;;;11.30;99.90;;;10.42;100.00;100517.94;4170221;28;20108;-71
2022/12/25 07:20:28;;;;;;;13.68;7.15;;;11.30;99.90;;;10.41;100.00;100498.66;4168956;28;20025;-71
2022/12/25 07:22:29;;;;;;;10.68;6.07;;;11.30;99.90;;;10.45;100.00;100515.78;4169870;28;20025;-71
2022/12/25 07:24:30;;;;;;;9.98;6.30;;;11.30;99.90;;;10.46;100.00;100527.16;4170162;28;20511;-71
2022/12/25 07:26:31;;;;;;;11.02;6.88;;;11.30;99.90;;;10.45;100.00;100525.53;4170043;28;20053;-71
2022/12/25 07:28:33;;;;;;;11.15;7.63;;;11.30;99.90;;;10.46;100.00;100540.34;4168852;28;20026;-71
2022/12/25 07:30:33;;;;;;;10.55;5.80;;;11.30;99.90;;;10.45;100.00;100530.81;4168514;28;20032;-71
2022/12/25 07:32:34;;;;;;;12.45;7.22;;;11.40;99.90;;;10.45;100.00;100539.53;4168739;28;20513;-71
2022/12/25 07:34:35;;;;;;;11.52;7.43;;;11.40;99.90;;;10.44;100.00;100548.44;4169849;28;20045;-71
2022/12/25 07:36:36;;;;;;;12.43;7.55;;;11.30;99.90;;;10.43;100.00;100536.22;4168797;28;20099;-71
2022/12/25 07:38:37;;;;;;;13.90;7.00;;;11.30;99.90;;;10.45;100.00;100536.88;4169779;28;20029;-71
2022/12/25 07:40:38;;;;;;;11.43;7.35;;;11.30;99.90;;;10.44;100.00;100535.25;4169846;28;20029;-71
2022/12/25 07:42:39;;;;;;;12.05;7.93;;;11.30;99.90;;;10.46;100.00;100548.25;4169175;28;20029;-70
2022/12/25 07:44:40;;;;;;;13.93;8.10;;;11.30;99.90;;;10.47;100.00;100549.94;4169060;28;20056;-71
2022/12/25 07:46:41;;;;;;;20.73;8.88;;;11.30;99.90;;;10.48;100.00;100535.75;4169839;28;20022;-71
2022/12/25 07:48:42;;;;;;;17.23;8.65;;;11.30;99.90;;;10.45;100.00;100521.06;4169729;28;20022;-71
2022/12/25 07:50:43;;;;;;;12.60;7.90;;;11.30;99.90;;;10.45;100.00;100528.97;4169672;28;20030;-71
2022/12/25 07:52:45;;;;;;;19.27;9.30;;;11.40;99.90;;;10.49;100.00;100537.41;4168364;28;20456;-71
2022/12/25 07:54:46;;;;;;;18.17;8.90;;;11.30;99.90;;;10.46;100.00;100527.16;4169642;28;20071;-71
2022/12/25 07:56:52;;;;;;;17.60;8.82;;;11.40;99.90;;;10.50;100.00;100528.50;4168215;28;20485;-71
2022/12/25 07:58:53;;;;;;;14.73;8.25;;;11.40;99.90;;;10.48;100.00;100514.66;4169569;28;20059;-71
2022/12/25 08:00:54;;;;;;;15.93;7.97;;;11.40;99.90;;;10.49;100.00;100513.66;4168119;28;20029;-71
2022/12/25 08:02:55;;;;;;;23.65;9.27;;;11.40;99.90;;;10.51;100.00;100527.53;4169318;28;20497;-71
2022/12/25 08:04:56;;;;;;;16.83;8.60;;;11.40;99.90;;;10.50;100.00;100525.88;4169691;28;20081;-71
2022/12/25 08:06:57;;;;;;;18.67;8.82;;;11.40;99.90;;;10.50;100.00;100523.22;4168371;28;20018;-71
2022/12/25 08:09:05;;;;;;;26.45;9.82;;;11.40;99.90;;;10.44;100.00;100537.88;4168227;28;20029;-71
2022/12/25 08:11:09;;;;;;;17.67;9.52;;;11.40;99.90;;;10.47;100.00;100534.94;4168032;28;20453;-71
2022/12/25 08:13:09;;;;;;;15.52;9.23;;;11.30;99.90;;;10.42;100.00;100531.13;4169224;28;20036;-71
2022/12/25 08:15:10;;;;;;;13.90;8.13;;;11.30;99.90;;;10.42;100.00;100541.69;4168936;28;20025;-71
2022/12/25 08:17:11;;;;;;;13.20;7.68;;;11.30;99.90;;;10.41;100.00;100542.66;4169052;28;20081;-71
2022/12/25 08:19:13;;;;;;;11.02;7.07;;;11.30;99.90;;;10.45;100.00;100552.72;4168100;28;20049;-71
2022/12/25 08:21:15;;;;;;;12.30;7.65;;;11.30;99.90;;;10.39;100.00;100550.72;4167974;28;20056;-71
2022/12/25 08:23:15;;;;;;;10.93;7.30;;;11.30;99.90;;;10.43;100.00;100569.69;4167783;28;20033;-71
2022/12/25 08:25:16;;;;;;;9.88;6.53;;;11.30;99.90;;;10.44;100.00;100572.16;4169098;28;20041;-71
2022/12/25 08:27:17;;;;;;;9.02;5.45;;;11.30;99.90;;;10.45;100.00;100550.06;4168966;28;20029;-71
2022/12/25 08:29:18;;;;;;;9.13;5.93;;;11.30;99.90;;;10.42;100.00;100553.03;4169083;28;20069;-71
2022/12/25 08:31:23;;;;;;;7.22;5.18;;;11.30;99.90;;;10.47;100.00;100563.13;4168621;28;20033;-71
2022/12/25 08:33:24;;;;;;;7.45;4.43;;;11.30;99.90;;;10.48;100.00;100551.59;4167705;28;20501;-72
2022/12/25 08:35:25;;;;;;;7.50;4.65;;;11.40;99.90;;;10.48;100.00;100554.22;4168993;28;20083;-71
2022/12/25 08:37:28;;;;;;;7.03;4.32;;;11.40;99.90;;;10.54;100.00;100574.69;4167824;28;20033;-71
2022/12/25 08:39:29;;;;;;;6.57;4.80;;;11.40;99.90;;;10.53;100.00;100570.38;4169083;28;20030;-71
2022/12/25 08:41:31;;;;;;;6.75;4.20;;;11.40;99.90;;;10.58;100.00;100573.38;4168948;28;20036;-71
2022/12/25 08:43:32;;;;;;;7.03;4.45;;;11.40;99.90;;;10.65;100.00;100579.66;4167005;28;20032;-71
2022/12/25 08:45:33;;;;;;;7.25;4.15;;;11.50;99.90;;;10.73;100.00;100577.03;4167631;28;20076;-71
2022/12/25 08:47:33;;;;;;;5.68;4.70;;;11.50;99.90;;;10.76;100.00;100582.00;4168976;28;20135;-71
2022/12/25 08:49:34;;;;;;;5.88;3.80;;;11.60;99.90;;;10.77;100.00;100567.81;4167660;28;20029;-71
2022/12/25 08:51:36;;;;;;;5.80;4.40;;;11.60;99.90;;;10.82;100.00;100559.41;4167589;28;20024;-71
2022/12/25 08:53:36;;;;;;;5.22;3.65;;;11.60;99.90;;;10.77;100.00;100540.59;4167471;28;20052;-71
2022/12/25 08:55:37;;;;;;;8.00;5.43;;;11.70;99.90;;;10.77;100.00;100546.72;4167531;28;20025;-70
2022/12/25 08:57:38;;;;;;;8.05;5.75;;;11.60;99.90;;;10.73;100.00;100542.75;4168758;28;20036;-70
2022/12/25 08:59:39;;;;;;;6.70;5.25;;;11.70;99.90;;;10.76;100.00;100550.31;4168546;28;20022;-71
2022/12/25 09:01:40;;;;;;;8.80;6.75;;;11.70;99.90;;;10.76;100.00;100547.69;4168575;28;20512;-71
2022/12/25 09:03:42;;;;;;;14.00;7.75;;;11.60;99.90;;;10.75;100.00;100542.59;4168555;28;20048;-71
2022/12/25 09:05:43;;;;;;;10.75;7.05;;;11.60;99.90;;;10.73;100.00;100545.38;4167563;28;20410;-71
2022/12/25 09:07:43;;;;;;;7.55;6.32;;;11.60;99.90;;;10.82;100.00;100562.88;4168676;28;20037;-71
2022/12/25 09:09:44;;;;;;;8.98;5.45;;;11.70;99.90;;;10.86;100.00;100571.31;4168664;28;20036;-71
2022/12/25 09:11:45;;;;;;;8.32;6.53;;;11.70;99.90;;;10.88;100.00;100562.22;4168737;28;20555;-71
2022/12/25 09:13:47;;;;;;;11.32;7.78;;;11.80;99.90;;;10.91;100.00;100561.06;4168531;28;20056;-71
2022/12/25 09:15:48;;;;;;;8.55;6.13;;;11.80;99.90;;;10.96;100.00;100572.00;4166996;28;20101;-71
2022/12/25 09:17:49;;;;;;;7.45;6.20;;;11.80;99.90;;;10.98;100.00;100560.28;4168547;28;20037;-71
2022/12/25 09:19:50;;;;;;;8.10;5.15;;;11.80;99.90;;;11.01;100.00;100554.69;4168662;28;20040;-70
2022/12/25 09:21:51;;;;;;;9.73;5.18;;;11.80;99.90;;;11.05;100.00;100574.44;4168473;28;20037;-71
2022/12/25 09:23:52;;;;;;;6.20;4.70;;;11.90;99.90;;;11.05;100.00;100577.09;4168432;28;20026;-70
2022/12/25 09:25:53;;;;;;;5.65;4.28;;;11.90;99.90;;;11.11;100.00;100587.00;4167185;28;20030;-71
2022/12/25 09:27:56;;;;;;;7.72;5.20;;;11.90;99.90;;;11.14;100.00;100590.31;4168574;28;20112;-71
2022/12/25 09:29:56;;;;;;;9.20;6.57;;;12.00;99.90;;;11.09;100.00;100599.56;4167043;28;20022;-71
2022/12/25 09:31:57;;;;;;;11.15;7.70;;;12.00;99.90;;;11.06;100.00;100591.13;4168425;28;20039;-70
2022/12/25 09:33:58;;;;;;;10.05;6.93;;;12.00;99.90;;;11.09;100.00;100593.44;4167276;28;20030;-70
2022/12/25 09:36:03;;;;;;;10.23;6.57;;;12.00;99.90;;;11.08;100.00;100582.06;4168503;28;20087;-71
2022/12/25 09:38:04;;;;;;;10.55;6.55;;;11.90;99.90;;;11.08;100.00;100581.22;4168464;28;20033;-71
2022/12/25 09:40:06;;;;;;;7.70;5.80;;;11.90;99.90;;;11.06;100.00;100589.31;4150823;28;20026;-71
2022/12/25 09:42:19;;;;;;;7.00;5.10;;;12.00;99.90;;;11.08;100.00;100595.25;4168137;28;20028;-71
2022/12/25 09:45:10;;;;;;;5.95;4.82;;;12.00;99.90;;;11.12;100.00;100611.59;4167036;28;20481;-71
2022/12/25 09:47:15;;;;;;;7.90;5.53;;;12.00;99.90;;;11.14;100.00;100616.72;4112798;28;20065;-71
2022/12/25 09:49:34;;;;;;;5.88;4.70;;;12.00;99.90;;;11.15;100.00;100618.34;4167193;28;20030;-71
2022/12/25 09:51:38;;;;;;;7.35;5.60;;;12.00;99.90;;;11.15;100.00;100628.91;4168351;28;20104;-71
2022/12/25 09:53:51;;;;;;;8.23;5.38;;;12.00;99.90;;;11.16;100.00;100625.31;4168276;28;20052;-71
2022/12/25 09:56:16;;;;;;;6.10;4.95;;;12.00;99.90;;;11.16;100.00;100622.66;4167350;28;20083;-71
2022/12/25 09:58:17;;;;;;;8.38;5.60;;;12.00;99.90;;;11.13;100.00;100625.63;4168324;28;20510;-71
2022/12/25 10:00:22;;;;;;;9.05;5.50;;;12.00;99.90;;;11.13;100.00;100615.06;4168166;28;20040;-71
2022/12/25 10:02:55;;;;;;;9.02;6.65;;;12.00;99.90;;;11.18;100.00;100639.16;4168237;28;20444;-71
2022/12/25 10:05:30;;;;;;;8.52;6.13;;;12.00;99.90;;;11.13;100.00;100642.28;4139307;28;20034;-71
2022/12/25 10:08:26;;;;;;;13.18;7.38;;;12.00;99.90;;;11.10;100.00;100627.59;4170431;28;20072;-71
2022/12/25 10:11:14;;;;;;;11.00;7.85;;;12.00;99.90;;;11.09;100.00;100641.78;4120827;28;20034;-71
2022/12/25 10:13:42;;;;;;;12.05;9.23;;;12.00;99.90;;;11.07;100.00;100637.66;4165617;28;20037;-71
2022/12/25 10:15:58;;;;;;;18.20;11.18;;;12.00;99.90;;;11.07;100.00;100633.22;4170809;28;20033;-71
2022/12/25 10:18:20;;;;;;;15.73;11.15;;;12.00;99.90;;;11.10;100.00;100634.69;4170092;28;20030;-71